Thunder radar more information blitzortung!


Radar de pluja more information rain snow radar


Visita la nostra xarxa de llocs de meteo:

Template documentation
and downloads

And another site



Wind From: 11-12-2017 11:00 Until: 14:59 warning for: Wind Level: Yellow info button

Pagina Historial Weather Underground text

Diari Resum Octubre 10, 2017 Unitats:  Tant    Imperial   Mètric
« Previous Dia
SegĂźent Dia »
Diari Setmana Mensual Anual Personalitzada
  Maxima: Minima: Media:
Temperatura: 77.7 °F /  25.4 °C 56.7 °F /  13.7 °C 65.8 °F /  18.8 °C
Punt de rosada: 60.8 °F /  16.0 °C 53.8 °F /  12.1 °C 57.6 °F /  14.2 °C
Humitat: 91 % 49 % 76 %
Wind Speed: 10 mph /  16.1 km/h - 2 mph /  3.2 km/h
RĂ fegues de vent: 10 mph /  16.1 km/h - -
Vent:- - SSE
Pression baro: 30.2 in /  1021.9 hPa 30.1 in /  1018.8 hPa -
Precipitacions: 0 in /  0.0 mm    
Historical Graphs
 
 
Dades de taula per Octubre 10, 2017
Temps Temperatura Punt de rosada Pression baro Vent Wind Speed RĂ fegues de vent Humitat Rainfall Rate (Hourly)
00:04 63.9 °F /  17.7 °C 57.2 °F /  14.0 °C 30.1 in /  1019.9 hPa Calm     79 % 0 in /  0.0 mm
00:09 63.9 °F /  17.7 °C 57.6 °F /  14.2 °C 30.1 in /  1019.9 hPa SSE 1.2 mph /  1.9 km/h   80 % 0 in /  0.0 mm
00:14 63.7 °F /  17.6 °C 57.4 °F /  14.1 °C 30.1 in /  1019.9 hPa Calm     80 % 0 in /  0.0 mm
00:19 63.7 °F /  17.6 °C 57.4 °F /  14.1 °C 30.1 in /  1019.9 hPa ENE 1.2 mph /  1.9 km/h   80 % 0 in /  0.0 mm
00:24 63.5 °F /  17.5 °C 57.2 °F /  14.0 °C 30.1 in /  1019.9 hPa Calm     80 % 0 in /  0.0 mm
00:29 63.1 °F /  17.3 °C 56.8 °F /  13.8 °C 30.1 in /  1019.9 hPa Calm     80 % 0 in /  0.0 mm
00:34 63.1 °F /  17.3 °C 56.8 °F /  13.8 °C 30.1 in /  1019.9 hPa ENE 1.4 mph /  2.3 km/h 1.4 mph /  2.3 km/h 80 % 0 in /  0.0 mm
00:39 62.8 °F /  17.1 °C 56.5 °F /  13.6 °C 30.1 in /  1019.9 hPa NE 1.2 mph /  1.9 km/h   80 % 0 in /  0.0 mm
00:44 62.6 °F /  17.0 °C 56.7 °F /  13.7 °C 30.1 in /  1019.9 hPa Calm     81 % 0 in /  0.0 mm
00:49 62.6 °F /  17.0 °C 56.7 °F /  13.7 °C 30.1 in /  1019.9 hPa Calm     81 % 0 in /  0.0 mm
00:54 62.6 °F /  17.0 °C 56.7 °F /  13.7 °C 30.1 in /  1019.9 hPa Calm     81 % 0 in /  0.0 mm
00:59 62.4 °F /  16.9 °C 57.2 °F /  14.0 °C 30.1 in /  1019.9 hPa Calm     83 % 0 in /  0.0 mm
01:04 62.4 °F /  16.9 °C 57.2 °F /  14.0 °C 30.1 in /  1019.9 hPa Calm     83 % 0 in /  0.0 mm
01:09 62.4 °F /  16.9 °C 57.2 °F /  14.0 °C 30.1 in /  1019.9 hPa NE 1.2 mph /  1.9 km/h 1.2 mph /  1.9 km/h 83 % 0 in /  0.0 mm
01:14 62.4 °F /  16.9 °C 57.2 °F /  14.0 °C 30.1 in /  1019.9 hPa Calm     83 % 0 in /  0.0 mm
01:19 62.2 °F /  16.8 °C 57 °F /  13.9 °C 30.1 in /  1019.9 hPa Calm     83 % 0 in /  0.0 mm
01:24 62.1 °F /  16.7 °C 56.8 °F /  13.8 °C 30.1 in /  1019.9 hPa SW 0.9 mph /  1.4 km/h   83 % 0 in /  0.0 mm
01:29 61.3 °F /  16.3 °C 56.1 °F /  13.4 °C 30.1 in /  1019.9 hPa SW 1.2 mph /  1.9 km/h 1.2 mph /  1.9 km/h 83 % 0 in /  0.0 mm
01:39 61.7 °F /  16.5 °C 56.8 °F /  13.8 °C 30.1 in /  1019.9 hPa SW 2.3 mph /  3.7 km/h 2.3 mph /  3.7 km/h 84 % 0 in /  0.0 mm
01:44 61.3 °F /  16.3 °C 56.5 °F /  13.6 °C 30.1 in /  1019.9 hPa WSW 1.2 mph /  1.9 km/h   84 % 0 in /  0.0 mm
01:49 61.5 °F /  16.4 °C 56.7 °F /  13.7 °C 30.1 in /  1019.9 hPa Calm     84 % 0 in /  0.0 mm
01:54 61.5 °F /  16.4 °C 57 °F /  13.9 °C 30.1 in /  1019.9 hPa Calm     85 % 0 in /  0.0 mm
01:59 61.7 °F /  16.5 °C 57 °F /  13.9 °C 30.1 in /  1019.9 hPa Calm     85 % 0 in /  0.0 mm
02:04 61.9 °F /  16.6 °C 57.4 °F /  14.1 °C 30.1 in /  1019.9 hPa Calm     85 % 0 in /  0.0 mm
02:09 61.9 °F /  16.6 °C 57.4 °F /  14.1 °C 30.1 in /  1019.9 hPa WNW 1.6 mph /  2.6 km/h 1.6 mph /  2.6 km/h 85 % 0 in /  0.0 mm
02:14 61.9 °F /  16.6 °C 57.4 °F /  14.1 °C 30.1 in /  1019.9 hPa Calm     85 % 0 in /  0.0 mm
02:19 61.9 °F /  16.6 °C 57.4 °F /  14.1 °C 30.1 in /  1019.9 hPa NNW 2.3 mph /  3.7 km/h 2.3 mph /  3.7 km/h 85 % 0 in /  0.0 mm
02:24 61.9 °F /  16.6 °C 57.4 °F /  14.1 °C 30.1 in /  1019.9 hPa NNE 1.2 mph /  1.9 km/h   85 % 0 in /  0.0 mm
02:29 61.7 °F /  16.5 °C 57 °F /  13.9 °C 30.1 in /  1019.9 hPa Calm     85 % 0 in /  0.0 mm
02:34 61.9 °F /  16.6 °C 57.6 °F /  14.2 °C 30.1 in /  1019.9 hPa Calm     86 % 0 in /  0.0 mm
02:39 61.9 °F /  16.6 °C 57.6 °F /  14.2 °C 30.1 in /  1019.9 hPa NNE 1.2 mph /  1.9 km/h 1.2 mph /  1.9 km/h 86 % 0 in /  0.0 mm
02:44 61.9 °F /  16.6 °C 57.6 °F /  14.2 °C 30.1 in /  1018.8 hPa Calm     86 % 0 in /  0.0 mm
02:49 61.7 °F /  16.5 °C 57.6 °F /  14.2 °C 30.1 in /  1018.8 hPa ENE 2 mph /  3.2 km/h   86 % 0 in /  0.0 mm
02:54 61.5 °F /  16.4 °C 57.4 °F /  14.1 °C 30.1 in /  1018.8 hPa SSW 1.6 mph /  2.6 km/h 1.6 mph /  2.6 km/h 86 % 0 in /  0.0 mm
02:59 61.2 °F /  16.2 °C 56.7 °F /  13.7 °C 30.1 in /  1019.9 hPa Calm     85 % 0 in /  0.0 mm
03:04 61.2 °F /  16.2 °C 56.7 °F /  13.7 °C 30.1 in /  1019.9 hPa SSW 1.2 mph /  1.9 km/h   85 % 0 in /  0.0 mm
03:09 61 °F /  16.1 °C 56.8 °F /  13.8 °C 30.1 in /  1019.9 hPa South 1.2 mph /  1.9 km/h   86 % 0 in /  0.0 mm
03:19 60.8 °F /  16.0 °C 56.7 °F /  13.7 °C 30.1 in /  1019.9 hPa Calm     86 % 0 in /  0.0 mm
03:24 60.6 °F /  15.9 °C 56.5 °F /  13.6 °C 30.1 in /  1019.9 hPa Calm     86 % 0 in /  0.0 mm
03:25 60.6 °F /  15.9 °C 56.5 °F /  13.6 °C 30.1 in /  1019.9 hPa Calm     86 % 0 in /  0.0 mm
03:30 60.4 °F /  15.8 °C 56.1 °F /  13.4 °C 30.1 in /  1019.9 hPa Calm     86 % 0 in /  0.0 mm
03:35 60.3 °F /  15.7 °C 56.1 °F /  13.4 °C 30.1 in /  1019.9 hPa Calm     86 % 0 in /  0.0 mm
03:40 60.3 °F /  15.7 °C 56.1 °F /  13.4 °C 30.1 in /  1019.9 hPa SW 1.2 mph /  1.9 km/h 1.2 mph /  1.9 km/h 86 % 0 in /  0.0 mm
03:45 60.3 °F /  15.7 °C 56.1 °F /  13.4 °C 30.1 in /  1019.9 hPa Calm     86 % 0 in /  0.0 mm
03:46 60.3 °F /  15.7 °C 56.5 °F /  13.6 °C 30.1 in /  1019.9 hPa Calm     87 % 0 in /  0.0 mm
03:51 60.1 °F /  15.6 °C 56.1 °F /  13.4 °C 30.1 in /  1019.9 hPa Calm     87 % 0 in /  0.0 mm
03:56 60.1 °F /  15.6 °C 56.1 °F /  13.4 °C 30.1 in /  1019.9 hPa Calm     87 % 0 in /  0.0 mm
04:01 60.3 °F /  15.7 °C 56.1 °F /  13.4 °C 30.1 in /  1019.9 hPa WNW 1.2 mph /  1.9 km/h   86 % 0 in /  0.0 mm
04:06 60.1 °F /  15.6 °C 56.1 °F /  13.4 °C 30.1 in /  1019.9 hPa Calm     87 % 0 in /  0.0 mm
04:11 60.1 °F /  15.6 °C 56.1 °F /  13.4 °C 30.1 in /  1019.9 hPa Calm     87 % 0 in /  0.0 mm
04:16 59.9 °F /  15.5 °C 55.9 °F /  13.3 °C 30.1 in /  1019.9 hPa Calm     87 % 0 in /  0.0 mm
04:22 59.5 °F /  15.3 °C 55.8 °F /  13.2 °C 30.1 in /  1019.9 hPa Calm     87 % 0 in /  0.0 mm
04:27 59.4 °F /  15.2 °C 55.6 °F /  13.1 °C 30.1 in /  1019.9 hPa Calm     87 % 0 in /  0.0 mm
04:32 59.5 °F /  15.3 °C 55.8 °F /  13.2 °C 30.1 in /  1019.9 hPa Calm     87 % 0 in /  0.0 mm
04:37 59.5 °F /  15.3 °C 55.9 °F /  13.3 °C 30.1 in /  1019.9 hPa Calm     88 % 0 in /  0.0 mm
04:42 59.5 °F /  15.3 °C 55.9 °F /  13.3 °C 30.1 in /  1019.9 hPa Calm     88 % 0 in /  0.0 mm
04:47 59.5 °F /  15.3 °C 55.9 °F /  13.3 °C 30.1 in /  1019.9 hPa Calm     88 % 0 in /  0.0 mm
04:52 59.5 °F /  15.3 °C 55.9 °F /  13.3 °C 30.1 in /  1019.9 hPa Calm     88 % 0 in /  0.0 mm
04:57 59.5 °F /  15.3 °C 55.9 °F /  13.3 °C 30.1 in /  1019.9 hPa Calm     88 % 0 in /  0.0 mm
05:03 59.5 °F /  15.3 °C 56.3 °F /  13.5 °C 30.1 in /  1019.9 hPa Calm     89 % 0 in /  0.0 mm
05:08 59.7 °F /  15.4 °C 56.5 °F /  13.6 °C 30.1 in /  1019.9 hPa WNW 1.2 mph /  1.9 km/h   89 % 0 in /  0.0 mm
05:14 59.5 °F /  15.3 °C 56.3 °F /  13.5 °C 30.1 in /  1019.9 hPa Calm     89 % 0 in /  0.0 mm
05:20 59.2 °F /  15.1 °C 55.6 °F /  13.1 °C 30.1 in /  1019.9 hPa Calm     88 % 0 in /  0.0 mm
05:25 59.2 °F /  15.1 °C 55.6 °F /  13.1 °C 30.1 in /  1019.9 hPa Calm     88 % 0 in /  0.0 mm
05:30 59.4 °F /  15.2 °C 55.8 °F /  13.2 °C 30.1 in /  1019.9 hPa Calm     88 % 0 in /  0.0 mm
05:35 59.2 °F /  15.1 °C 55.6 °F /  13.1 °C 30.1 in /  1019.9 hPa Calm     88 % 0 in /  0.0 mm
05:36 59.2 °F /  15.1 °C 55.6 °F /  13.1 °C 30.1 in /  1019.9 hPa Calm     88 % 0 in /  0.0 mm
05:41 59 °F /  15.0 °C 55.8 °F /  13.2 °C 30.1 in /  1019.9 hPa Calm     89 % 0 in /  0.0 mm
05:46 59 °F /  15.0 °C 55.8 °F /  13.2 °C 30.1 in /  1019.9 hPa SW 1.4 mph /  2.3 km/h   89 % 0 in /  0.0 mm
05:51 59.2 °F /  15.1 °C 55.9 °F /  13.3 °C 30.1 in /  1019.9 hPa Calm     89 % 0 in /  0.0 mm
05:56 59.2 °F /  15.1 °C 55.9 °F /  13.3 °C 30.1 in /  1019.9 hPa Calm     89 % 0 in /  0.0 mm
06:01 59 °F /  15.0 °C 55.8 °F /  13.2 °C 30.1 in /  1018.8 hPa Calm     89 % 0 in /  0.0 mm
06:06 58.8 °F /  14.9 °C 55.6 °F /  13.1 °C 30.1 in /  1018.8 hPa Calm     89 % 0 in /  0.0 mm
06:11 58.6 °F /  14.8 °C 55.4 °F /  13.0 °C 30.1 in /  1018.8 hPa Calm     89 % 0 in /  0.0 mm
06:16 58.6 °F /  14.8 °C 55.4 °F /  13.0 °C 30.1 in /  1019.9 hPa Calm     89 % 0 in /  0.0 mm
06:21 58.8 °F /  14.9 °C 55.6 °F /  13.1 °C 30.1 in /  1019.9 hPa Calm     89 % 0 in /  0.0 mm
06:26 58.6 °F /  14.8 °C 55.8 °F /  13.2 °C 30.1 in /  1019.9 hPa Calm     90 % 0 in /  0.0 mm
06:31 58.6 °F /  14.8 °C 55.8 °F /  13.2 °C 30.1 in /  1019.9 hPa Calm     90 % 0 in /  0.0 mm
06:36 58.6 °F /  14.8 °C 55.8 °F /  13.2 °C 30.1 in /  1019.9 hPa Calm     90 % 0 in /  0.0 mm
06:41 58.5 °F /  14.7 °C 55.6 °F /  13.1 °C 30.1 in /  1019.9 hPa Calm     90 % 0 in /  0.0 mm
06:46 58.5 °F /  14.7 °C 55.6 °F /  13.1 °C 30.1 in /  1018.8 hPa NW 1.2 mph /  1.9 km/h   90 % 0 in /  0.0 mm
06:51 58.1 °F /  14.5 °C 55.2 °F /  12.9 °C 30.1 in /  1018.8 hPa Calm     90 % 0 in /  0.0 mm
06:56 57.9 °F /  14.4 °C 54.7 °F /  12.6 °C 30.1 in /  1018.8 hPa Calm     89 % 0 in /  0.0 mm
07:01 57.7 °F /  14.3 °C 54.5 °F /  12.5 °C 30.1 in /  1019.9 hPa Calm     89 % 0 in /  0.0 mm
07:06 57.6 °F /  14.2 °C 54.3 °F /  12.4 °C 30.1 in /  1019.9 hPa Calm     89 % 0 in /  0.0 mm
07:11 57.4 °F /  14.1 °C 54.1 °F /  12.3 °C 30.1 in /  1019.9 hPa Calm     89 % 0 in /  0.0 mm
07:16 57.2 °F /  14.0 °C 54 °F /  12.2 °C 30.1 in /  1019.9 hPa Calm     89 % 0 in /  0.0 mm
07:21 57.4 °F /  14.1 °C 54.5 °F /  12.5 °C 30.1 in /  1019.9 hPa Calm     90 % 0 in /  0.0 mm
07:26 57.2 °F /  14.0 °C 54.3 °F /  12.4 °C 30.1 in /  1019.9 hPa Calm     90 % 0 in /  0.0 mm
07:31 57.2 °F /  14.0 °C 54.3 °F /  12.4 °C 30.1 in /  1018.8 hPa Calm     90 % 0 in /  0.0 mm
07:36 57 °F /  13.9 °C 54.1 °F /  12.3 °C 30.1 in /  1018.8 hPa Calm     90 % 0 in /  0.0 mm
07:41 57 °F /  13.9 °C 54.1 °F /  12.3 °C 30.1 in /  1018.8 hPa Calm     90 % 0 in /  0.0 mm
07:46 56.8 °F /  13.8 °C 54 °F /  12.2 °C 30.1 in /  1019.9 hPa Calm     90 % 0 in /  0.0 mm
07:51 56.8 °F /  13.8 °C 54 °F /  12.2 °C 30.1 in /  1019.9 hPa Calm     90 % 0 in /  0.0 mm
07:56 56.7 °F /  13.7 °C 53.8 °F /  12.1 °C 30.1 in /  1019.9 hPa Calm     90 % 0 in /  0.0 mm
08:01 56.7 °F /  13.7 °C 53.8 °F /  12.1 °C 30.1 in /  1019.9 hPa Calm     90 % 0 in /  0.0 mm
08:11 56.8 °F /  13.8 °C 54 °F /  12.2 °C 30.1 in /  1019.9 hPa Calm     90 % 0 in /  0.0 mm
08:16 56.7 °F /  13.7 °C 53.8 °F /  12.1 °C 30.1 in /  1019.9 hPa Calm     90 % 0 in /  0.0 mm
08:21 56.7 °F /  13.7 °C 53.8 °F /  12.1 °C 30.1 in /  1019.9 hPa Calm     90 % 0 in /  0.0 mm
08:26 56.8 °F /  13.8 °C 54 °F /  12.2 °C 30.1 in /  1019.9 hPa Calm     90 % 0 in /  0.0 mm
08:31 56.8 °F /  13.8 °C 54.1 °F /  12.3 °C 30.1 in /  1019.9 hPa WNW 1.4 mph /  2.3 km/h 1.4 mph /  2.3 km/h 91 % 0 in /  0.0 mm
08:36 57 °F /  13.9 °C 54.1 °F /  12.3 °C 30.1 in /  1019.9 hPa SW 2.3 mph /  3.7 km/h 2.3 mph /  3.7 km/h 90 % 0 in /  0.0 mm
08:41 57 °F /  13.9 °C 54.1 °F /  12.3 °C 30.1 in /  1019.9 hPa SW 1.2 mph /  1.9 km/h 1.2 mph /  1.9 km/h 90 % 0 in /  0.0 mm
08:51 57.2 °F /  14.0 °C 54.3 °F /  12.4 °C 30.1 in /  1019.9 hPa SW 2.3 mph /  3.7 km/h 2.3 mph /  3.7 km/h 90 % 0 in /  0.0 mm
08:56 57.4 °F /  14.1 °C 54.9 °F /  12.7 °C 30.1 in /  1019.9 hPa West 2.3 mph /  3.7 km/h 2.3 mph /  3.7 km/h 91 % 0 in /  0.0 mm
09:02 57.7 °F /  14.3 °C 54.9 °F /  12.7 °C 30.2 in /  1020.9 hPa WSW 2.3 mph /  3.7 km/h 2.3 mph /  3.7 km/h 90 % 0 in /  0.0 mm
09:07 58.1 °F /  14.5 °C 55.6 °F /  13.1 °C 30.2 in /  1020.9 hPa WSW 1.2 mph /  1.9 km/h 1.2 mph /  1.9 km/h 91 % 0 in /  0.0 mm
09:12 58.3 °F /  14.6 °C 55.8 °F /  13.2 °C 30.2 in /  1020.9 hPa WSW 2.3 mph /  3.7 km/h 2.3 mph /  3.7 km/h 91 % 0 in /  0.0 mm
09:17 58.8 °F /  14.9 °C 56.1 °F /  13.4 °C 30.2 in /  1020.9 hPa WSW 2.6 mph /  4.2 km/h 2.6 mph /  4.2 km/h 91 % 0 in /  0.0 mm
09:22 59.4 °F /  15.2 °C 56.7 °F /  13.7 °C 30.2 in /  1020.9 hPa SW 2.6 mph /  4.2 km/h 2.6 mph /  4.2 km/h 91 % 0 in /  0.0 mm
09:27 59.7 °F /  15.4 °C 57 °F /  13.9 °C 30.2 in /  1020.9 hPa WSW 2.3 mph /  3.7 km/h 2.3 mph /  3.7 km/h 91 % 0 in /  0.0 mm
09:32 60.1 °F /  15.6 °C 57.4 °F /  14.1 °C 30.2 in /  1021.9 hPa SW 2.3 mph /  3.7 km/h 2.3 mph /  3.7 km/h 91 % 0 in /  0.0 mm
09:37 60.4 °F /  15.8 °C 57.7 °F /  14.3 °C 30.2 in /  1021.9 hPa SW 2.3 mph /  3.7 km/h 2.3 mph /  3.7 km/h 91 % 0 in /  0.0 mm
09:42 61 °F /  16.1 °C 58.3 °F /  14.6 °C 30.2 in /  1021.9 hPa SW 1.2 mph /  1.9 km/h   91 % 0 in /  0.0 mm
09:47 61.2 °F /  16.2 °C 58.3 °F /  14.6 °C 30.2 in /  1021.9 hPa SSW 1.2 mph /  1.9 km/h 1.2 mph /  1.9 km/h 90 % 0 in /  0.0 mm
09:52 61.7 °F /  16.5 °C 58.6 °F /  14.8 °C 30.2 in /  1021.9 hPa SSE 2.3 mph /  3.7 km/h 2.3 mph /  3.7 km/h 90 % 0 in /  0.0 mm
09:57 62.2 °F /  16.8 °C 59.4 °F /  15.2 °C 30.2 in /  1021.9 hPa SSW 2.3 mph /  3.7 km/h   90 % 0 in /  0.0 mm
09:58 62.2 °F /  16.8 °C 59.4 °F /  15.2 °C 30.2 in /  1021.9 hPa Calm     90 % 0 in /  0.0 mm
10:03 63.1 °F /  17.3 °C 59.7 °F /  15.4 °C 30.2 in /  1021.9 hPa WNW 1.2 mph /  1.9 km/h 1.2 mph /  1.9 km/h 89 % 0 in /  0.0 mm
10:08 63.1 °F /  17.3 °C 59.2 °F /  15.1 °C 30.2 in /  1021.9 hPa WSW 2.3 mph /  3.7 km/h 2.3 mph /  3.7 km/h 87 % 0 in /  0.0 mm
10:18 64.8 °F /  18.2 °C 60.1 °F /  15.6 °C 30.2 in /  1021.9 hPa SSW 1.2 mph /  1.9 km/h   85 % 0 in /  0.0 mm
10:23 64.4 °F /  18.0 °C 59.5 °F /  15.3 °C 30.2 in /  1021.9 hPa SW 2.3 mph /  3.7 km/h 2.3 mph /  3.7 km/h 84 % 0 in /  0.0 mm
10:28 64.9 °F /  18.3 °C 59.7 °F /  15.4 °C 30.2 in /  1021.9 hPa NNE 1.2 mph /  1.9 km/h   83 % 0 in /  0.0 mm
10:33 65.1 °F /  18.4 °C 59.7 °F /  15.4 °C 30.2 in /  1021.9 hPa SSW 2.3 mph /  3.7 km/h 2.3 mph /  3.7 km/h 83 % 0 in /  0.0 mm
10:38 66.2 °F /  19.0 °C 60.3 °F /  15.7 °C 30.2 in /  1021.9 hPa NE 2.4 mph /  3.9 km/h 2.4 mph /  3.9 km/h 81 % 0 in /  0.0 mm
10:43 66.6 °F /  19.2 °C 60.3 °F /  15.7 °C 30.2 in /  1021.9 hPa Calm     80 % 0 in /  0.0 mm
10:48 66.9 °F /  19.4 °C 59.7 °F /  15.4 °C 30.2 in /  1021.9 hPa NE 1.2 mph /  1.9 km/h 1.2 mph /  1.9 km/h 78 % 0 in /  0.0 mm
10:53 67.6 °F /  19.8 °C 59.7 °F /  15.4 °C 30.2 in /  1021.9 hPa East 2.6 mph /  4.2 km/h 2.6 mph /  4.2 km/h 76 % 0 in /  0.0 mm
10:58 67.5 °F /  19.7 °C 60.1 °F /  15.6 °C 30.2 in /  1021.9 hPa ENE 2.3 mph /  3.7 km/h 2.3 mph /  3.7 km/h 77 % 0 in /  0.0 mm
11:03 67.6 °F /  19.8 °C 59.7 °F /  15.4 °C 30.2 in /  1021.9 hPa SE 2.3 mph /  3.7 km/h 2.3 mph /  3.7 km/h 76 % 0 in /  0.0 mm
11:08 68.5 °F /  20.3 °C 60.3 °F /  15.7 °C 30.2 in /  1021.9 hPa NNE 4.3 mph /  6.9 km/h 4.3 mph /  6.9 km/h 75 % 0 in /  0.0 mm
11:13 67.8 °F /  19.9 °C 59.2 °F /  15.1 °C 30.2 in /  1021.9 hPa ESE 2.3 mph /  3.7 km/h 2.4 mph /  3.9 km/h 74 % 0 in /  0.0 mm
11:18 68.5 °F /  20.3 °C 59.9 °F /  15.5 °C 30.2 in /  1021.9 hPa NE 2.3 mph /  3.7 km/h 2.3 mph /  3.7 km/h 74 % 0 in /  0.0 mm
11:19 68.7 °F /  20.4 °C 60.1 °F /  15.6 °C 30.2 in /  1021.9 hPa ESE 2.9 mph /  4.7 km/h 2.9 mph /  4.7 km/h 74 % 0 in /  0.0 mm
11:24 69.1 °F /  20.6 °C 59.7 °F /  15.4 °C 30.2 in /  1021.9 hPa ESE 2.3 mph /  3.7 km/h 2.6 mph /  4.2 km/h 72 % 0 in /  0.0 mm
11:29 68.9 °F /  20.5 °C 59.9 °F /  15.5 °C 30.2 in /  1021.9 hPa ENE 3.5 mph /  5.6 km/h 3.5 mph /  5.6 km/h 73 % 0 in /  0.0 mm
11:34 69.4 °F /  20.8 °C 60.4 °F /  15.8 °C 30.2 in /  1021.9 hPa ENE 2.3 mph /  3.7 km/h 2.3 mph /  3.7 km/h 73 % 0 in /  0.0 mm
11:39 70 °F /  21.1 °C 60.1 °F /  15.6 °C 30.2 in /  1021.9 hPa South 3.5 mph /  5.6 km/h 3.5 mph /  5.6 km/h 71 % 0 in /  0.0 mm
11:44 70.7 °F /  21.5 °C 60.8 °F /  16.0 °C 30.2 in /  1021.9 hPa NNE 3.5 mph /  5.6 km/h 3.5 mph /  5.6 km/h 71 % 0 in /  0.0 mm
11:49 70.7 °F /  21.5 °C 60.1 °F /  15.6 °C 30.2 in /  1021.9 hPa ESE 2.9 mph /  4.7 km/h 2.9 mph /  4.7 km/h 69 % 0 in /  0.0 mm
11:54 70.9 °F /  21.6 °C 60.3 °F /  15.7 °C 30.2 in /  1021.9 hPa ESE 2.9 mph /  4.7 km/h 2.9 mph /  4.7 km/h 69 % 0 in /  0.0 mm
11:59 71.6 °F /  22.0 °C 59.5 °F /  15.3 °C 30.2 in /  1020.9 hPa ESE 3.5 mph /  5.6 km/h 3.5 mph /  5.6 km/h 66 % 0 in /  0.0 mm
12:04 71.4 °F /  21.9 °C 60.3 °F /  15.7 °C 30.2 in /  1020.9 hPa SSE 5.8 mph /  9.3 km/h 5.8 mph /  9.3 km/h 68 % 0 in /  0.0 mm
12:09 71.8 °F /  22.1 °C 59.7 °F /  15.4 °C 30.2 in /  1020.9 hPa NE 3.5 mph /  5.6 km/h 3.5 mph /  5.6 km/h 66 % 0 in /  0.0 mm
12:14 71.8 °F /  22.1 °C 60.3 °F /  15.7 °C 30.2 in /  1020.9 hPa East 3.5 mph /  5.6 km/h 3.5 mph /  5.6 km/h 67 % 0 in /  0.0 mm
12:19 71.4 °F /  21.9 °C 59.5 °F /  15.3 °C 30.2 in /  1020.9 hPa ENE 4.6 mph /  7.4 km/h 4.6 mph /  7.4 km/h 66 % 0 in /  0.0 mm
12:24 72 °F /  22.2 °C 59.2 °F /  15.1 °C 30.2 in /  1020.9 hPa SSE 4.6 mph /  7.4 km/h 4.6 mph /  7.4 km/h 64 % 0 in /  0.0 mm
12:29 72.1 °F /  22.3 °C 59.7 °F /  15.4 °C 30.2 in /  1021.9 hPa ESE 5.6 mph /  9.0 km/h 5.6 mph /  9.0 km/h 65 % 0 in /  0.0 mm
12:34 71.8 °F /  22.1 °C 59.4 °F /  15.2 °C 30.2 in /  1021.9 hPa NE 4.6 mph /  7.4 km/h 4.6 mph /  7.4 km/h 65 % 0 in /  0.0 mm
12:39 72 °F /  22.2 °C 59.5 °F /  15.3 °C 30.2 in /  1021.9 hPa East 4.6 mph /  7.4 km/h 4.6 mph /  7.4 km/h 65 % 0 in /  0.0 mm
12:44 72 °F /  22.2 °C 59.5 °F /  15.3 °C 30.2 in /  1020.9 hPa NE 3.5 mph /  5.6 km/h 3.5 mph /  5.6 km/h 65 % 0 in /  0.0 mm
12:49 72.3 °F /  22.4 °C 59.9 °F /  15.5 °C 30.2 in /  1020.9 hPa NNW 4.6 mph /  7.4 km/h 4.6 mph /  7.4 km/h 65 % 0 in /  0.0 mm
12:54 72.1 °F /  22.3 °C 58.8 °F /  14.9 °C 30.2 in /  1020.9 hPa ENE 3.5 mph /  5.6 km/h 3.5 mph /  5.6 km/h 63 % 0 in /  0.0 mm
13:04 73.8 °F /  23.2 °C 60.4 °F /  15.8 °C 30.2 in /  1020.9 hPa WSW 2.4 mph /  3.9 km/h 2.4 mph /  3.9 km/h 63 % 0 in /  0.0 mm
13:09 74.7 °F /  23.7 °C 60.8 °F /  16.0 °C 30.2 in /  1020.9 hPa SE 3.5 mph /  5.6 km/h 3.5 mph /  5.6 km/h 62 % 0 in /  0.0 mm
13:14 75.4 °F /  24.1 °C 59.5 °F /  15.3 °C 30.2 in /  1020.9 hPa SSE 3.5 mph /  5.6 km/h 3.6 mph /  5.8 km/h 58 % 0 in /  0.0 mm
13:19 75.2 °F /  24.0 °C 59.9 °F /  15.5 °C 30.2 in /  1020.9 hPa SSW 2.3 mph /  3.7 km/h 2.3 mph /  3.7 km/h 59 % 0 in /  0.0 mm
13:24 74.7 °F /  23.7 °C 59.4 °F /  15.2 °C 30.2 in /  1020.9 hPa South 3.8 mph /  6.1 km/h 3.8 mph /  6.1 km/h 59 % 0 in /  0.0 mm
13:29 75.2 °F /  24.0 °C 58.8 °F /  14.9 °C 30.2 in /  1020.9 hPa South 3.5 mph /  5.6 km/h 3.5 mph /  5.6 km/h 57 % 0 in /  0.0 mm
13:34 74.3 °F /  23.5 °C 58.1 °F /  14.5 °C 30.2 in /  1020.9 hPa SE 6.9 mph /  11.1 km/h 6.9 mph /  11.1 km/h 57 % 0 in /  0.0 mm
13:39 75.6 °F /  24.2 °C 59.4 °F /  15.2 °C 30.2 in /  1020.9 hPa ESE 2.3 mph /  3.7 km/h 2.3 mph /  3.7 km/h 57 % 0 in /  0.0 mm
13:44 76.6 °F /  24.8 °C 59.7 °F /  15.4 °C 30.2 in /  1020.9 hPa East 3.5 mph /  5.6 km/h 3.5 mph /  5.6 km/h 56 % 0 in /  0.0 mm
13:49 75.7 °F /  24.3 °C 58.8 °F /  14.9 °C 30.2 in /  1020.9 hPa ESE 4.6 mph /  7.4 km/h 4.6 mph /  7.4 km/h 56 % 0 in /  0.0 mm
13:54 75.4 °F /  24.1 °C 59.2 °F /  15.1 °C 30.2 in /  1020.9 hPa NE 4.6 mph /  7.4 km/h 4.6 mph /  7.4 km/h 57 % 0 in /  0.0 mm
13:59 74.8 °F /  23.8 °C 59.2 °F /  15.1 °C 30.1 in /  1019.9 hPa ESE 4.6 mph /  7.4 km/h 4.6 mph /  7.4 km/h 58 % 0 in /  0.0 mm
14:14 74.5 °F /  23.6 °C 58.3 °F /  14.6 °C 30.1 in /  1019.9 hPa ENE 2.6 mph /  4.2 km/h 2.6 mph /  4.2 km/h 57 % 0 in /  0.0 mm
14:19 73.8 °F /  23.2 °C 57.6 °F /  14.2 °C 30.1 in /  1019.9 hPa ENE 4.6 mph /  7.4 km/h 4.6 mph /  7.4 km/h 57 % 0 in /  0.0 mm
14:24 73.6 °F /  23.1 °C 57.4 °F /  14.1 °C 30.1 in /  1019.9 hPa ENE 4.9 mph /  7.9 km/h 4.9 mph /  7.9 km/h 57 % 0 in /  0.0 mm
14:29 73.4 °F /  23.0 °C 57.2 °F /  14.0 °C 30.1 in /  1019.9 hPa ESE 3.8 mph /  6.1 km/h 3.8 mph /  6.1 km/h 57 % 0 in /  0.0 mm
14:34 73.6 °F /  23.1 °C 57.4 °F /  14.1 °C 30.1 in /  1019.9 hPa ESE 3.5 mph /  5.6 km/h 3.5 mph /  5.6 km/h 57 % 0 in /  0.0 mm
14:39 73.9 °F /  23.3 °C 57.7 °F /  14.3 °C 30.1 in /  1019.9 hPa ESE 8.1 mph /  13.0 km/h 8.1 mph /  13.0 km/h 57 % 0 in /  0.0 mm
14:44 73.8 °F /  23.2 °C 57 °F /  13.9 °C 30.1 in /  1019.9 hPa WNW 3.5 mph /  5.6 km/h 3.5 mph /  5.6 km/h 56 % 0 in /  0.0 mm
14:49 73.6 °F /  23.1 °C 56.8 °F /  13.8 °C 30.1 in /  1019.9 hPa ESE 2.9 mph /  4.7 km/h 2.9 mph /  4.7 km/h 56 % 0 in /  0.0 mm
14:54 73.8 °F /  23.2 °C 57 °F /  13.9 °C 30.1 in /  1019.9 hPa South 4.6 mph /  7.4 km/h 4.6 mph /  7.4 km/h 56 % 0 in /  0.0 mm
14:59 74.3 °F /  23.5 °C 57.6 °F /  14.2 °C 30.1 in /  1019.9 hPa WSW 2.3 mph /  3.7 km/h 2.3 mph /  3.7 km/h 56 % 0 in /  0.0 mm
15:04 74.7 °F /  23.7 °C 57.4 °F /  14.1 °C 30.1 in /  1019.9 hPa SSE 1.4 mph /  2.3 km/h 1.6 mph /  2.6 km/h 55 % 0 in /  0.0 mm
15:09 74.7 °F /  23.7 °C 57.9 °F /  14.4 °C 30.1 in /  1019.9 hPa SW 2.3 mph /  3.7 km/h 2.3 mph /  3.7 km/h 56 % 0 in /  0.0 mm
15:14 75 °F /  23.9 °C 57.7 °F /  14.3 °C 30.1 in /  1019.9 hPa ESE 4.6 mph /  7.4 km/h 4.6 mph /  7.4 km/h 55 % 0 in /  0.0 mm
15:19 75.7 °F /  24.3 °C 57.4 °F /  14.1 °C 30.1 in /  1019.9 hPa ESE 5.8 mph /  9.3 km/h 5.8 mph /  9.3 km/h 53 % 0 in /  0.0 mm
15:24 76.5 °F /  24.7 °C 58.6 °F /  14.8 °C 30.1 in /  1019.9 hPa SW 4.9 mph /  7.9 km/h 4.9 mph /  7.9 km/h 54 % 0 in /  0.0 mm
15:29 76.8 °F /  24.9 °C 58.5 °F /  14.7 °C 30.1 in /  1019.9 hPa WSW 5.8 mph /  9.3 km/h 5.8 mph /  9.3 km/h 53 % 0 in /  0.0 mm
15:34 76.8 °F /  24.9 °C 57.9 °F /  14.4 °C 30.1 in /  1019.9 hPa SE 4.6 mph /  7.4 km/h 4.6 mph /  7.4 km/h 52 % 0 in /  0.0 mm
15:39 76.6 °F /  24.8 °C 57.2 °F /  14.0 °C 30.1 in /  1019.9 hPa ESE 4.6 mph /  7.4 km/h 4.6 mph /  7.4 km/h 51 % 0 in /  0.0 mm
15:44 77.7 °F /  25.4 °C 57 °F /  13.9 °C 30.1 in /  1019.9 hPa SSW 2.3 mph /  3.7 km/h 2.3 mph /  3.7 km/h 49 % 0 in /  0.0 mm
15:49 77.4 °F /  25.2 °C 57.4 °F /  14.1 °C 30.1 in /  1019.9 hPa West 5.9 mph /  9.5 km/h 5.9 mph /  9.5 km/h 50 % 0 in /  0.0 mm
15:54 77 °F /  25.0 °C 56.8 °F /  13.8 °C 30.1 in /  1019.9 hPa NE 4.7 mph /  7.6 km/h 4.7 mph /  7.6 km/h 50 % 0 in /  0.0 mm
15:59 76.6 °F /  24.8 °C 57.7 °F /  14.3 °C 30.1 in /  1019.9 hPa SSW 2.9 mph /  4.7 km/h 2.9 mph /  4.7 km/h 52 % 0 in /  0.0 mm
16:04 76.8 °F /  24.9 °C 57.4 °F /  14.1 °C 30.1 in /  1019.9 hPa SSE 3.5 mph /  5.6 km/h 3.5 mph /  5.6 km/h 51 % 0 in /  0.0 mm
16:09 77 °F /  25.0 °C 56.8 °F /  13.8 °C 30.1 in /  1019.9 hPa SSW 2 mph /  3.2 km/h 2 mph /  3.2 km/h 50 % 0 in /  0.0 mm
16:19 76.8 °F /  24.9 °C 57.4 °F /  14.1 °C 30.1 in /  1019.9 hPa SW 2.3 mph /  3.7 km/h 2.3 mph /  3.7 km/h 51 % 0 in /  0.0 mm
16:24 76.6 °F /  24.8 °C 57.2 °F /  14.0 °C 30.1 in /  1019.9 hPa SW 2.3 mph /  3.7 km/h 2.3 mph /  3.7 km/h 51 % 0 in /  0.0 mm
16:29 76.1 °F /  24.5 °C 56.7 °F /  13.7 °C 30.1 in /  1019.9 hPa ESE 4.6 mph /  7.4 km/h 4.6 mph /  7.4 km/h 51 % 0 in /  0.0 mm
16:34 74.8 °F /  23.8 °C 55.6 °F /  13.1 °C 30.1 in /  1019.9 hPa ESE 7.6 mph /  12.2 km/h 7.6 mph /  12.2 km/h 51 % 0 in /  0.0 mm
16:39 74.3 °F /  23.5 °C 55.6 °F /  13.1 °C 30.1 in /  1019.9 hPa ESE 5.8 mph /  9.3 km/h 5.8 mph /  9.3 km/h 52 % 0 in /  0.0 mm
16:44 73.9 °F /  23.3 °C 56.1 °F /  13.4 °C 30.1 in /  1019.9 hPa East 5.8 mph /  9.3 km/h 5.8 mph /  9.3 km/h 54 % 0 in /  0.0 mm
16:49 73.6 °F /  23.1 °C 56.8 °F /  13.8 °C 30.1 in /  1019.9 hPa East 10 mph /  16.1 km/h 10 mph /  16.1 km/h 56 % 0 in /  0.0 mm
16:54 73 °F /  22.8 °C 57.4 °F /  14.1 °C 30.1 in /  1019.9 hPa East 9.2 mph /  14.8 km/h 9.2 mph /  14.8 km/h 58 % 0 in /  0.0 mm
16:59 73 °F /  22.8 °C 57.9 °F /  14.4 °C 30.1 in /  1019.9 hPa ESE 8.1 mph /  13.0 km/h 8.1 mph /  13.0 km/h 59 % 0 in /  0.0 mm
17:04 72.7 °F /  22.6 °C 57.9 °F /  14.4 °C 30.1 in /  1019.9 hPa ESE 6.9 mph /  11.1 km/h 6.9 mph /  11.1 km/h 60 % 0 in /  0.0 mm
17:09 72.5 °F /  22.5 °C 57.7 °F /  14.3 °C 30.1 in /  1019.9 hPa ESE 5.8 mph /  9.3 km/h 5.8 mph /  9.3 km/h 60 % 0 in /  0.0 mm
17:14 72.5 °F /  22.5 °C 58.3 °F /  14.6 °C 30.1 in /  1019.9 hPa ESE 5.8 mph /  9.3 km/h 5.8 mph /  9.3 km/h 61 % 0 in /  0.0 mm
17:19 72.3 °F /  22.4 °C 58.1 °F /  14.5 °C 30.1 in /  1019.9 hPa ESE 6.9 mph /  11.1 km/h 6.9 mph /  11.1 km/h 61 % 0 in /  0.0 mm
17:24 72.3 °F /  22.4 °C 58.6 °F /  14.8 °C 30.1 in /  1019.9 hPa ENE 5.8 mph /  9.3 km/h 5.8 mph /  9.3 km/h 62 % 0 in /  0.0 mm
17:34 72.3 °F /  22.4 °C 59 °F /  15.0 °C 30.1 in /  1019.9 hPa ESE 5.8 mph /  9.3 km/h 5.8 mph /  9.3 km/h 63 % 0 in /  0.0 mm
17:39 72.3 °F /  22.4 °C 59 °F /  15.0 °C 30.1 in /  1019.9 hPa SE 6.9 mph /  11.1 km/h 6.9 mph /  11.1 km/h 63 % 0 in /  0.0 mm
17:44 72.1 °F /  22.3 °C 58.8 °F /  14.9 °C 30.1 in /  1019.9 hPa ENE 5.8 mph /  9.3 km/h 5.8 mph /  9.3 km/h 63 % 0 in /  0.0 mm
17:49 72.1 °F /  22.3 °C 58.8 °F /  14.9 °C 30.1 in /  1019.9 hPa ENE 5.9 mph /  9.5 km/h 5.9 mph /  9.5 km/h 63 % 0 in /  0.0 mm
17:54 71.8 °F /  22.1 °C 58.8 °F /  14.9 °C 30.1 in /  1019.9 hPa East 4.6 mph /  7.4 km/h 4.6 mph /  7.4 km/h 64 % 0 in /  0.0 mm
17:59 71.8 °F /  22.1 °C 58.8 °F /  14.9 °C 30.1 in /  1019.9 hPa ESE 3.6 mph /  5.8 km/h 3.6 mph /  5.8 km/h 64 % 0 in /  0.0 mm
18:04 71.8 °F /  22.1 °C 58.8 °F /  14.9 °C 30.1 in /  1019.9 hPa ENE 3.5 mph /  5.6 km/h 3.6 mph /  5.8 km/h 64 % 0 in /  0.0 mm
18:09 71.6 °F /  22.0 °C 58.8 °F /  14.9 °C 30.1 in /  1019.9 hPa ESE 9.2 mph /  14.8 km/h 9.2 mph /  14.8 km/h 64 % 0 in /  0.0 mm
18:14 71.4 °F /  21.9 °C 59.5 °F /  15.3 °C 30.1 in /  1019.9 hPa ENE 5.8 mph /  9.3 km/h 5.8 mph /  9.3 km/h 66 % 0 in /  0.0 mm
18:19 71.4 °F /  21.9 °C 59.5 °F /  15.3 °C 30.1 in /  1019.9 hPa East 3.5 mph /  5.6 km/h 3.6 mph /  5.8 km/h 66 % 0 in /  0.0 mm
18:24 71.4 °F /  21.9 °C 59.5 °F /  15.3 °C 30.1 in /  1019.9 hPa ESE 4.6 mph /  7.4 km/h 4.6 mph /  7.4 km/h 66 % 0 in /  0.0 mm
18:29 71.4 °F /  21.9 °C 59.5 °F /  15.3 °C 30.1 in /  1018.8 hPa SW 1.4 mph /  2.3 km/h   66 % 0 in /  0.0 mm
18:39 71.8 °F /  22.1 °C 58.8 °F /  14.9 °C 30.1 in /  1018.8 hPa SSW 1.2 mph /  1.9 km/h   64 % 0 in /  0.0 mm
18:44 71.8 °F /  22.1 °C 58.8 °F /  14.9 °C 30.1 in /  1019.9 hPa WSW 4.6 mph /  7.4 km/h 4.6 mph /  7.4 km/h 64 % 0 in /  0.0 mm
18:45 71.8 °F /  22.1 °C 58.8 °F /  14.9 °C 30.1 in /  1019.9 hPa WSW 4.6 mph /  7.4 km/h 4.6 mph /  7.4 km/h 64 % 0 in /  0.0 mm
18:50 71.8 °F /  22.1 °C 58.8 °F /  14.9 °C 30.1 in /  1019.9 hPa SW 3.5 mph /  5.6 km/h 4.3 mph /  6.9 km/h 64 % 0 in /  0.0 mm
18:55 71.6 °F /  22.0 °C 58.8 °F /  14.9 °C 30.1 in /  1019.9 hPa SW 3.8 mph /  6.1 km/h 4.3 mph /  6.9 km/h 64 % 0 in /  0.0 mm
19:00 71.2 °F /  21.8 °C 58.8 °F /  14.9 °C 30.1 in /  1019.9 hPa SW 5.9 mph /  9.5 km/h 5.9 mph /  9.5 km/h 65 % 0 in /  0.0 mm
19:05 71.1 °F /  21.7 °C 59.2 °F /  15.1 °C 30.1 in /  1019.9 hPa SW 4.7 mph /  7.6 km/h 4.7 mph /  7.6 km/h 66 % 0 in /  0.0 mm
19:15 70.7 °F /  21.5 °C 58.8 °F /  14.9 °C 30.1 in /  1019.9 hPa SW 4.9 mph /  7.9 km/h 4.9 mph /  7.9 km/h 66 % 0 in /  0.0 mm
19:20 70.3 °F /  21.3 °C 58.5 °F /  14.7 °C 30.1 in /  1019.9 hPa SW 6.4 mph /  10.3 km/h 6.4 mph /  10.3 km/h 66 % 0 in /  0.0 mm
19:25 70.2 °F /  21.2 °C 58.3 °F /  14.6 °C 30.1 in /  1019.9 hPa SSW 2.6 mph /  4.2 km/h 2.6 mph /  4.2 km/h 66 % 0 in /  0.0 mm
19:30 69.8 °F /  21.0 °C 58.3 °F /  14.6 °C 30.1 in /  1019.9 hPa SSW 5.8 mph /  9.3 km/h 5.8 mph /  9.3 km/h 67 % 0 in /  0.0 mm
19:35 69.6 °F /  20.9 °C 58.3 °F /  14.6 °C 30.1 in /  1019.9 hPa SW 2.3 mph /  3.7 km/h 2.3 mph /  3.7 km/h 67 % 0 in /  0.0 mm
19:40 69.4 °F /  20.8 °C 57.9 °F /  14.4 °C 30.1 in /  1019.9 hPa SW 3.5 mph /  5.6 km/h 3.5 mph /  5.6 km/h 67 % 0 in /  0.0 mm
19:45 69.1 °F /  20.6 °C 58.1 °F /  14.5 °C 30.1 in /  1019.9 hPa SSW 3.5 mph /  5.6 km/h 3.5 mph /  5.6 km/h 68 % 0 in /  0.0 mm
19:50 69.1 °F /  20.6 °C 58.1 °F /  14.5 °C 30.1 in /  1019.9 hPa SW 2.3 mph /  3.7 km/h   68 % 0 in /  0.0 mm
19:55 68.7 °F /  20.4 °C 58.1 °F /  14.5 °C 30.1 in /  1019.9 hPa WSW 4.6 mph /  7.4 km/h 4.6 mph /  7.4 km/h 69 % 0 in /  0.0 mm
20:00 68.5 °F /  20.3 °C 57.9 °F /  14.4 °C 30.2 in /  1020.9 hPa SW 2.2 mph /  3.5 km/h 2.2 mph /  3.5 km/h 69 % 0 in /  0.0 mm
20:05 68.4 °F /  20.2 °C 57.7 °F /  14.3 °C 30.2 in /  1020.9 hPa SW 2.3 mph /  3.7 km/h 2.3 mph /  3.7 km/h 69 % 0 in /  0.0 mm
20:10 68.2 °F /  20.1 °C 57.9 °F /  14.4 °C 30.2 in /  1020.9 hPa SW 2.4 mph /  3.9 km/h 2.4 mph /  3.9 km/h 70 % 0 in /  0.0 mm
20:15 68 °F /  20.0 °C 57.7 °F /  14.3 °C 30.2 in /  1020.9 hPa SW 2.3 mph /  3.7 km/h 2.3 mph /  3.7 km/h 70 % 0 in /  0.0 mm
20:20 68 °F /  20.0 °C 57.7 °F /  14.3 °C 30.2 in /  1020.9 hPa West 2.3 mph /  3.7 km/h 2.3 mph /  3.7 km/h 70 % 0 in /  0.0 mm
20:25 67.8 °F /  19.9 °C 58.5 °F /  14.7 °C 30.2 in /  1020.9 hPa SW 2.3 mph /  3.7 km/h 2.3 mph /  3.7 km/h 72 % 0 in /  0.0 mm
20:30 62.6 °F /  17.0 °C 58.5 °F /  14.7 °C 30.2 in /  1021.9 hPa Calm     86 % 0 in /  0.0 mm
20:35 67.6 °F /  19.8 °C 58.3 °F /  14.6 °C 30.2 in /  1020.9 hPa WSW 1.2 mph /  1.9 km/h   72 % 0 in /  0.0 mm
20:40 67.5 °F /  19.7 °C 58.5 °F /  14.7 °C 30.2 in /  1020.9 hPa SW 2.3 mph /  3.7 km/h   73 % 0 in /  0.0 mm
20:45 67.3 °F /  19.6 °C 58.3 °F /  14.6 °C 30.2 in /  1021.9 hPa WSW 2.3 mph /  3.7 km/h 2.3 mph /  3.7 km/h 73 % 0 in /  0.0 mm
20:50 67.3 °F /  19.6 °C 58.3 °F /  14.6 °C 30.2 in /  1021.9 hPa West 2.3 mph /  3.7 km/h 2.3 mph /  3.7 km/h 73 % 0 in /  0.0 mm
20:55 67.1 °F /  19.5 °C 58.5 °F /  14.7 °C 30.2 in /  1021.9 hPa Calm     74 % 0 in /  0.0 mm
21:00 66.9 °F /  19.4 °C 58.5 °F /  14.7 °C 30.2 in /  1021.9 hPa SW 0.9 mph /  1.4 km/h   74 % 0 in /  0.0 mm
21:05 66.9 °F /  19.4 °C 58.5 °F /  14.7 °C 30.2 in /  1021.9 hPa SW 1.2 mph /  1.9 km/h   74 % 0 in /  0.0 mm
21:10 66.7 °F /  19.3 °C 58.6 °F /  14.8 °C 30.2 in /  1021.9 hPa Calm     75 % 0 in /  0.0 mm
21:15 66.6 °F /  19.2 °C 58.5 °F /  14.7 °C 30.2 in /  1021.9 hPa Calm     75 % 0 in /  0.0 mm
21:20 66.4 °F /  19.1 °C 58.3 °F /  14.6 °C 30.2 in /  1021.9 hPa Calm     75 % 0 in /  0.0 mm
21:25 66.4 °F /  19.1 °C 58.3 °F /  14.6 °C 30.2 in /  1021.9 hPa Calm     75 % 0 in /  0.0 mm
21:30 66.2 °F /  19.0 °C 58.5 °F /  14.7 °C 30.2 in /  1021.9 hPa Calm     76 % 0 in /  0.0 mm
21:35 66.2 °F /  19.0 °C 58.5 °F /  14.7 °C 30.2 in /  1021.9 hPa Calm     76 % 0 in /  0.0 mm
21:40 66 °F /  18.9 °C 58.3 °F /  14.6 °C 30.2 in /  1021.9 hPa Calm   1 mph /  1.6 km/h 76 % 0 in /  0.0 mm
21:45 65.8 °F /  18.8 °C 58.5 °F /  14.7 °C 30.2 in /  1021.9 hPa Calm     77 % 0 in /  0.0 mm
21:50 65.7 °F /  18.7 °C 58.3 °F /  14.6 °C 30.2 in /  1021.9 hPa Calm     77 % 0 in /  0.0 mm
21:55 65.7 °F /  18.7 °C 58.3 °F /  14.6 °C 30.2 in /  1021.9 hPa Calm     77 % 0 in /  0.0 mm
22:00 65.5 °F /  18.6 °C 58.5 °F /  14.7 °C 30.2 in /  1021.9 hPa Calm     78 % 0 in /  0.0 mm
22:05 65.5 °F /  18.6 °C 58.5 °F /  14.7 °C 30.2 in /  1021.9 hPa Calm     78 % 0 in /  0.0 mm
22:10 65.5 °F /  18.6 °C 58.5 °F /  14.7 °C 30.2 in /  1021.9 hPa Calm     78 % 0 in /  0.0 mm
22:15 65.3 °F /  18.5 °C 58.3 °F /  14.6 °C 30.2 in /  1020.9 hPa Calm     78 % 0 in /  0.0 mm
22:20 65.3 °F /  18.5 °C 58.6 °F /  14.8 °C 30.2 in /  1020.9 hPa Calm     79 % 0 in /  0.0 mm
22:25 65.3 °F /  18.5 °C 58.6 °F /  14.8 °C 30.2 in /  1020.9 hPa Calm     79 % 0 in /  0.0 mm
22:30 65.1 °F /  18.4 °C 58.5 °F /  14.7 °C 30.2 in /  1021.9 hPa Calm     79 % 0 in /  0.0 mm
22:35 65.1 °F /  18.4 °C 58.5 °F /  14.7 °C 30.2 in /  1021.9 hPa Calm     79 % 0 in /  0.0 mm
22:40 64.9 °F /  18.3 °C 58.3 °F /  14.6 °C 30.2 in /  1021.9 hPa Calm     79 % 0 in /  0.0 mm
22:45 64.9 °F /  18.3 °C 58.3 °F /  14.6 °C 30.2 in /  1021.9 hPa Calm     79 % 0 in /  0.0 mm
22:50 64.8 °F /  18.2 °C 58.5 °F /  14.7 °C 30.2 in /  1021.9 hPa Calm     80 % 0 in /  0.0 mm
23:00 64.8 °F /  18.2 °C 58.5 °F /  14.7 °C 30.2 in /  1021.9 hPa Calm     80 % 0 in /  0.0 mm
23:05 64.8 °F /  18.2 °C 58.5 °F /  14.7 °C 30.2 in /  1021.9 hPa Calm     80 % 0 in /  0.0 mm
23:10 64.6 °F /  18.1 °C 58.3 °F /  14.6 °C 30.2 in /  1021.9 hPa Calm   2 mph /  3.2 km/h 80 % 0 in /  0.0 mm
23:15 64.8 °F /  18.2 °C 58.5 °F /  14.7 °C 30.2 in /  1021.9 hPa Calm   2 mph /  3.2 km/h 80 % 0 in /  0.0 mm
23:20 64.6 °F /  18.1 °C 58.6 °F /  14.8 °C 30.2 in /  1021.9 hPa Calm     81 % 0 in /  0.0 mm
23:25 64.6 °F /  18.1 °C 58.6 °F /  14.8 °C 30.2 in /  1021.9 hPa West 1.2 mph /  1.9 km/h   81 % 0 in /  0.0 mm
23:30 64.6 °F /  18.1 °C 58.6 °F /  14.8 °C 30.2 in /  1021.9 hPa West 1.2 mph /  1.9 km/h   81 % 0 in /  0.0 mm
23:35 64.6 °F /  18.1 °C 58.6 °F /  14.8 °C 30.2 in /  1021.9 hPa Calm     81 % 0 in /  0.0 mm
23:40 64.6 °F /  18.1 °C 59 °F /  15.0 °C 30.2 in /  1021.9 hPa Calm     82 % 0 in /  0.0 mm
23:45 64.4 °F /  18.0 °C 58.8 °F /  14.9 °C 30.2 in /  1021.9 hPa Calm     82 % 0 in /  0.0 mm
23:47 64.4 °F /  18.0 °C 58.8 °F /  14.9 °C 30.2 in /  1021.9 hPa Calm     82 % 0 in /  0.0 mm
23:50 59 °F /  15.0 °C 55.4 °F /  13.0 °C 30.2 in /  1021.9 hPa Calm   1 mph /  1.6 km/h 88 % 0 in /  0.0 mm
23:52 64 °F /  17.8 °C 58.5 °F /  14.7 °C 30.2 in /  1021.9 hPa Calm     82 % 0 in /  0.0 mm
23:57 64 °F /  17.8 °C 58.5 °F /  14.7 °C 30.2 in /  1021.9 hPa Calm     82 % 0 in /  0.0 mm
Meteo Sesrovires
Elogis d' Weather Underground - 4 mb

Guio original per  Jim McMurry - jmcmurry@mwt.net Adaptat per a la plantilla per  Wim van der Kuil - Leuven-Template.eu

Trobareu la nostra informacio del temps tambe a:

Weather Underground

AWEKAS